Parkman, WY (82838)

3:15 PM MST on December 25, 2014 (GMT -0700)
KWYSHERI2 | Change Station
CLOSE
Current Station
Personal Weather Station
Location: Sheridan, WY
Elevation: 3828 ft
Nearby Weather Stations

Elev 3828 ft 44.81 °N, 106.98 °W | Updated 3 minutes ago

Snow
Snow
23.9 °F
Feels Like 24 °F
N
1.0
Wind Variable Wind from WNW
Gusts 1.0 mph

Today
High -- | Low -- °F
--% Chance of Precip.
Yesterday
High -- | Low -- °F
Precip. -- in
7:46 AM 4:32 PM
Waxing Crescent, 19% visible
Pressure 30.00 in
Visibility 4.0 miles
Clouds Mostly Cloudy 3700 ft
Overcast 4900 ft
Windchill 24 °F
Dew Point 20 °F
Humidity 84%
Rainfall 0.23 in
Snow Depth Not available.
UV 0 out of 12
Pollen .10 out of 12
Air Quality Not available.
Flu Activity Not available.
METAR KSHR 252153Z AUTO 31012KT 4SM -SN BKN037 OVC049 M04/M07 A2988 RMK AO2 SLP157 P0000 T10441072

More Conditions Fewer Conditions

Pressure 30.00 in
Visibility 4.0 miles
Clouds Mostly Cloudy 3700 ft
Overcast 4900 ft
Windchill 24 °F
Dew Point 20 °F
Humidity 84%
Rainfall 0.23 in
Snow Depth Not available.
UV 0 out of 12
Pollen .10 out of 12
Air Quality Not available.
Flu Activity Not available.
METAR KSHR 252153Z AUTO 31012KT 4SM -SN BKN037 OVC049 M04/M07 A2988 RMK AO2 SLP157 P0000 T10441072

More Conditions Fewer Conditions

10-Day Weather Forecast

Almanac

Astronomy

Dec. 25, 2014 Rise Set
Actual Time
Civil Twilight
Nautical Twilight
Astronomical Twilight
Moon
Length of Visible Light
Length of Day
Tomorrow will be .
, % of the Moon is Illuminated

Today's Extremes

State Highs State Lows

Community

WunderPhotos

Upload Photos

1,780,424 photos uploaded!

WunderBlogs® & News

Nearby

Air Quality

  Air Quality AQ Index Pollutant
Not available.

Snow Depth

Station Depth Elevation

Earthquake Activity

City Distance Mag. Time & Date
Minimum magnitude displayed is 2.5.

Coastal Water Temperatures

Place Temperature

Nearby Weather Stations